Time;durP1;ratioP1;P1;durP2;ratioP2;P2;SDS_P1;SDS_P2;PMS_P1;PMS_P2;Temp;Humidity;BMP_temperature;BMP_pressure;BME280_temperature;BME280_humidity;BME280_pressure;Samples;Min_cycle;Max_cycle;Signal;HPM_P1;HPM_P2
2022/05/27 00:02:23;;;;;;;2.13;2.03;;;18.10;67.70;;;;;;5063358;28;20172;-80
2022/05/27 00:04:48;;;;;;;2.58;2.17;;;18.00;68.40;;;;;;5059359;28;20192;-81
2022/05/27 00:07:14;;;;;;;2.72;2.00;;;17.90;68.70;;;;;;5064116;28;20210;-80
2022/05/27 00:09:40;;;;;;;2.58;2.38;;;17.90;69.30;;;;;;5065053;28;20210;-80
2022/05/27 00:12:06;;;;;;;2.80;2.10;;;17.80;69.60;;;;;;5050472;28;20199;-81
2022/05/27 00:14:32;;;;;;;2.30;2.03;;;17.90;69.30;;;;;;5061113;28;20214;-82
2022/05/27 00:16:57;;;;;;;2.97;2.42;;;17.90;69.20;;;;;;5056263;28;20278;-80
2022/05/27 00:19:23;;;;;;;3.30;2.30;;;18.00;68.90;;;;;;5058994;28;20184;-80
2022/05/27 00:21:49;;;;;;;2.95;2.10;;;18.10;68.60;;;;;;5061496;28;20275;-80
2022/05/27 00:24:14;;;;;;;2.92;2.08;;;18.20;68.10;;;;;;5066205;28;20215;-80
2022/05/27 00:26:40;;;;;;;3.75;2.35;;;18.30;67.50;;;;;;5064485;28;20572;-81
2022/05/27 00:29:06;;;;;;;3.75;2.30;;;18.40;67.00;;;;;;5067512;28;20196;-80
2022/05/27 00:31:32;;;;;;;4.85;2.50;;;18.50;66.60;;;;;;5030897;28;20223;-80
2022/05/27 00:33:58;;;;;;;4.40;2.72;;;18.50;66.70;;;;;;5028311;28;20216;-82
2022/05/27 00:36:24;;;;;;;5.43;2.53;;;18.50;66.70;;;;;;5059569;28;20200;-81
2022/05/27 00:38:50;;;;;;;3.30;2.80;;;18.50;66.80;;;;;;5067264;28;20338;-80
2022/05/27 00:41:16;;;;;;;2.50;2.22;;;18.60;66.40;;;;;;5063177;28;20268;-81
2022/05/27 00:43:43;;;;;;;4.50;2.70;;;18.50;66.50;;;;;;5062062;28;20223;-80
2022/05/27 00:46:28;;;;;;;2.55;2.30;;;18.10;67.90;;;;;;5066229;28;20219;-80
2022/05/27 00:49:02;;;;;;;3.58;2.85;;;18.00;68.80;;;;;;5051357;28;20622;-80
2022/05/27 00:51:32;;;;;;;4.85;2.63;;;17.90;69.20;;;;;;5063557;28;20192;-80
2022/05/27 00:54:11;;;;;;;2.72;2.53;;;17.90;69.30;;;;;;5066170;28;20755;-80
2022/05/27 00:56:41;;;;;;;3.33;2.33;;;17.90;69.50;;;;;;5065762;28;20313;-81
2022/05/27 00:59:14;;;;;;;3.83;2.30;;;17.80;70.00;;;;;;5058463;28;20179;-81
2022/05/27 01:01:41;;;;;;;2.97;2.75;;;17.60;70.70;;;;;;5069664;28;20186;-81
2022/05/27 01:04:09;;;;;;;2.75;2.55;;;17.50;71.80;;;;;;5052581;28;20210;-80
2022/05/27 01:06:35;;;;;;;4.53;2.70;;;17.50;71.80;;;;;;5074236;28;20167;-79
2022/05/27 01:09:02;;;;;;;2.70;2.50;;;17.50;72.20;;;;;;5047568;28;20185;-80
2022/05/27 01:12:00;;;;;;;2.77;2.40;;;17.40;72.30;;;;;;5060274;28;20196;-80
2022/05/27 01:14:50;;;;;;;3.37;2.77;;;17.30;73.40;;;;;;5060176;28;20288;-79
2022/05/27 01:17:38;;;;;;;4.50;2.60;;;17.30;73.90;;;;;;5062617;28;20236;-81
2022/05/27 01:20:42;;;;;;;4.50;2.80;;;17.30;74.10;;;;;;5062851;28;20178;-79
2022/05/27 01:23:26;;;;;;;2.93;2.63;;;17.30;73.80;;;;;;5062360;28;20216;-79
2022/05/27 01:26:13;;;;;;;3.77;2.63;;;17.40;73.50;;;;;;5063061;28;20187;-80
2022/05/27 01:28:49;;;;;;;2.93;2.50;;;17.40;73.20;;;;;;5062190;28;20227;-80
2022/05/27 01:31:15;;;;;;;3.17;2.77;;;17.40;73.50;;;;;;5055817;28;20199;-80
2022/05/27 01:34:11;;;;;;;2.80;2.60;;;17.30;73.90;;;;;;5067951;28;20201;-80
2022/05/27 01:36:52;;;;;;;4.60;2.75;;;17.30;73.60;;;;;;5063643;28;20204;-80
2022/05/27 01:40:01;;;;;;;2.90;2.60;;;17.40;73.30;;;;;;5039674;28;20206;-79
2022/05/27 01:43:05;;;;;;;2.83;2.63;;;17.40;72.80;;;;;;5024095;28;20190;-79
2022/05/27 01:45:44;;;;;;;2.60;2.40;;;17.50;72.30;;;;;;5034583;28;20205;-79
2022/05/27 01:48:28;;;;;;;3.40;2.38;;;17.60;71.50;;;;;;5059551;28;20175;-81
2022/05/27 01:50:59;;;;;;;3.47;2.67;;;17.70;71.40;;;;;;5055340;28;20282;-80
2022/05/27 01:53:26;;;;;;;4.22;2.65;;;17.70;71.30;;;;;;5046753;28;20204;-80
2022/05/27 01:56:24;;;;;;;2.80;2.42;;;17.70;71.60;;;;;;5058964;28;20224;-80
2022/05/27 01:58:56;;;;;;;2.88;2.67;;;17.60;72.00;;;;;;5057574;28;20302;-81
2022/05/27 02:01:43;;;;;;;3.58;2.58;;;17.30;73.50;;;;;;5020687;28;20194;-80
2022/05/27 02:04:33;;;;;;;4.93;2.87;;;17.10;74.20;;;;;;5050876;28;20203;-79
2022/05/27 02:07:08;;;;;;;2.87;2.67;;;17.10;74.70;;;;;;5053064;28;20199;-80
2022/05/27 02:09:44;;;;;;;3.50;2.80;;;17.00;75.20;;;;;;5039438;28;20196;-80
2022/05/27 02:12:23;;;;;;;2.93;2.43;;;16.90;76.20;;;;;;5055463;28;20188;-81
2022/05/27 02:14:54;;;;;;;3.97;2.50;;;16.80;77.30;;;;;;5059436;28;20184;-80
2022/05/27 02:17:27;;;;;;;2.90;2.53;;;16.60;78.10;;;;;;5049656;28;20218;-81
2022/05/27 02:19:59;;;;;;;3.50;3.07;;;16.50;79.60;;;;;;5059459;28;20187;-80
2022/05/27 02:22:31;;;;;;;5.43;2.70;;;16.40;80.00;;;;;;5068662;28;20187;-80
2022/05/27 02:25:06;;;;;;;3.20;2.90;;;16.40;80.60;;;;;;5052856;28;20177;-79
2022/05/27 02:27:36;;;;;;;4.90;2.90;;;16.30;81.60;;;;;;5037331;28;20187;-80
2022/05/27 02:30:06;;;;;;;5.23;3.40;;;16.20;83.10;;;;;;5059802;28;20209;-80
2022/05/27 02:35:07;;;;;;;3.10;2.90;;;16.10;83.30;;;;;;5056919;28;20270;-81
2022/05/27 02:35:37;;;;;;;4.50;3.13;;;16.20;83.50;;;;;;5052575;28;20198;-80
2022/05/27 02:38:03;;;;;;;2.73;2.50;;;16.10;84.10;;;;;;5053987;28;20187;-80
2022/05/27 02:40:40;;;;;;;3.73;2.50;;;16.00;85.10;;;;;;5062952;28;20192;-81
2022/05/27 02:43:41;;;;;;;6.27;3.17;;;16.00;85.00;;;;;;5059094;28;20285;-81
2022/05/27 02:46:31;;;;;;;3.80;3.00;;;16.00;85.70;;;;;;5019972;28;20596;-80
2022/05/27 02:49:09;;;;;;;3.10;2.80;;;16.10;85.50;;;;;;5058431;28;20192;-80
2022/05/27 02:51:35;;;;;;;7.70;3.33;;;16.00;85.50;;;;;;5056220;28;20218;-80
2022/05/27 02:54:25;;;;;;;5.13;3.30;;;16.10;86.00;;;;;;5050752;28;20205;-81
2022/05/27 02:57:32;;;;;;;5.57;2.93;;;16.00;86.30;;;;;;5055273;28;20327;-80
2022/05/27 03:00:01;;;;;;;4.50;2.97;;;16.00;87.10;;;;;;5054656;28;20243;-80
2022/05/27 03:02:27;;;;;;;5.80;3.17;;;15.90;87.30;;;;;;5051916;28;20634;-80
2022/05/27 03:04:58;;;;;;;4.23;3.20;;;15.90;87.50;;;;;;5036403;28;20203;-80
2022/05/27 03:07:39;;;;;;;3.73;3.20;;;16.00;87.10;;;;;;5053935;28;20196;-79
2022/05/27 03:10:38;;;;;;;4.93;3.10;;;16.10;86.90;;;;;;5058496;28;20195;-81
2022/05/27 03:13:10;;;;;;;3.40;3.10;;;16.00;87.20;;;;;;5052974;28;20236;-80
2022/05/27 03:15:54;;;;;;;3.87;3.53;;;16.00;87.60;;;;;;5042240;28;20195;-79
2022/05/27 03:18:34;;;;;;;4.60;3.40;;;15.80;88.70;;;;;;5050717;28;20188;-81
2022/05/27 03:21:28;;;;;;;4.70;3.43;;;15.70;90.10;;;;;;5051453;28;20212;-80
2022/05/27 03:24:15;;;;;;;3.60;3.23;;;15.80;89.50;;;;;;5038169;28;20269;-80
2022/05/27 03:26:52;;;;;;;5.23;3.53;;;15.80;89.80;;;;;;5056128;28;20186;-82
2022/05/27 03:29:56;;;;;;;4.93;4.00;;;15.70;90.40;;;;;;5039929;28;20214;-80
2022/05/27 03:32:35;;;;;;;3.70;3.40;;;15.80;90.50;;;;;;4967592;28;20302;-79
2022/05/27 03:35:28;;;;;;;6.03;3.60;;;15.80;90.90;;;;;;5058409;28;20191;-80
2022/05/27 03:38:04;;;;;;;5.00;3.60;;;15.80;90.30;;;;;;5030893;28;20207;-80
2022/05/27 03:40:53;;;;;;;5.57;3.97;;;15.90;90.70;;;;;;5056410;28;20254;-80
2022/05/27 03:43:20;;;;;;;4.20;3.80;;;15.90;90.40;;;;;;5042130;28;20232;-81
2022/05/27 03:45:54;;;;;;;4.33;3.70;;;15.90;90.30;;;;;;5060661;28;20198;-80
2022/05/27 03:48:21;;;;;;;4.53;3.80;;;16.00;90.20;;;;;;5057841;28;20272;-80
2022/05/27 03:50:49;;;;;;;4.80;4.17;;;16.00;90.10;;;;;;5064945;28;20204;-78
2022/05/27 03:53:15;;;;;;;4.93;4.10;;;16.00;89.50;;;;;;5074865;28;20431;-79
2022/05/27 03:55:44;;;;;;;4.50;3.97;;;16.10;89.50;;;;;;5068721;28;20226;-79
2022/05/27 03:58:17;;;;;;;5.27;4.00;;;16.10;89.70;;;;;;5069119;28;20195;-79
2022/05/27 04:00:44;;;;;;;4.33;3.93;;;16.10;89.90;;;;;;5056916;28;20222;-80
2022/05/27 04:03:11;;;;;;;5.33;3.80;;;16.00;90.50;;;;;;5054774;28;20247;-79
2022/05/27 04:05:37;;;;;;;5.13;4.10;;;16.10;89.90;;;;;;5054215;28;20191;-79
2022/05/27 04:08:03;;;;;;;4.83;4.30;;;16.20;89.00;;;;;;5056924;28;20233;-80
2022/05/27 04:10:29;;;;;;;4.77;3.93;;;16.30;88.30;;;;;;5054617;28;20199;-82
2022/05/27 04:12:55;;;;;;;4.97;4.30;;;16.20;87.70;;;;;;5040068;28;20278;-80
2022/05/27 04:15:21;;;;;;;4.70;4.23;;;16.00;89.70;;;;;;5056537;28;20608;-80
2022/05/27 04:17:46;;;;;;;6.50;5.30;;;16.00;88.90;;;;;;5043458;28;20197;-79
2022/05/27 04:20:15;;;;;;;4.70;4.20;;;16.00;88.60;;;;;;5058614;28;20271;-80
2022/05/27 04:22:41;;;;;;;4.50;4.10;;;16.10;89.00;;;;;;5061939;28;20227;-80
2022/05/27 04:25:08;;;;;;;4.90;4.40;;;16.10;88.90;;;;;;5059522;28;20219;-80
2022/05/27 04:27:36;;;;;;;5.23;4.27;;;16.20;89.00;;;;;;5052004;28;20180;-79
2022/05/27 04:30:04;;;;;;;5.00;4.50;;;16.20;88.30;;;;;;5054746;28;20199;-80
2022/05/27 04:32:30;;;;;;;6.90;4.17;;;16.20;88.40;;;;;;5050763;28;20784;-80
2022/05/27 04:34:56;;;;;;;4.90;3.97;;;16.10;88.60;;;;;;5058153;28;20209;-80
2022/05/27 04:37:23;;;;;;;5.57;4.27;;;16.10;88.80;;;;;;5035592;28;20214;-78
2022/05/27 04:39:49;;;;;;;5.60;3.87;;;16.10;88.50;;;;;;5059546;28;20194;-79
2022/05/27 04:42:15;;;;;;;4.60;4.10;;;16.10;88.70;;;;;;5058841;28;20183;-80
2022/05/27 04:44:41;;;;;;;4.60;4.00;;;16.20;88.30;;;;;;5058559;28;20257;-80
2022/05/27 04:47:07;;;;;;;5.43;4.33;;;16.10;88.40;;;;;;5046346;28;20194;-80
2022/05/27 04:52:30;;;;;;;4.90;3.90;;;16.20;88.60;;;;;;5061027;28;20206;-80
2022/05/27 04:54:58;;;;;;;4.80;4.33;;;16.20;88.50;;;;;;5058113;28;20187;-80
2022/05/27 04:57:30;;;;;;;4.13;3.83;;;16.30;88.70;;;;;;5060913;28;20276;-79
2022/05/27 04:59:56;;;;;;;5.13;4.17;;;16.30;88.20;;;;;;5059030;28;20189;-81
2022/05/27 05:02:23;;;;;;;4.10;3.70;;;16.10;88.20;;;;;;5060725;28;20196;-80
2022/05/27 05:04:49;;;;;;;5.13;4.13;;;16.20;88.10;;;;;;5064216;28;20226;-79
2022/05/27 05:07:14;;;;;;;4.47;4.07;;;16.20;88.30;;;;;;5031345;28;20191;-80
2022/05/27 05:09:45;;;;;;;5.83;3.60;;;16.30;88.20;;;;;;5045595;28;20192;-80
2022/05/27 05:12:12;;;;;;;4.93;4.07;;;16.20;88.40;;;;;;5061599;28;20210;-80
2022/05/27 05:14:38;;;;;;;5.17;3.77;;;16.20;88.40;;;;;;5065943;28;20202;-79
2022/05/27 05:17:04;;;;;;;6.03;4.00;;;16.20;88.20;;;;;;5062956;28;20230;-80
2022/05/27 05:19:30;;;;;;;5.20;4.70;;;16.30;87.70;;;;;;5029811;28;20185;-80
2022/05/27 05:21:56;;;;;;;4.00;3.70;;;16.20;87.70;;;;;;5065658;28;20194;-78
2022/05/27 05:24:23;;;;;;;4.67;4.07;;;16.10;88.10;;;;;;5027087;28;20811;-79
2022/05/27 05:26:49;;;;;;;4.63;3.73;;;16.10;88.60;;;;;;5061872;28;20191;-80
2022/05/27 05:29:17;;;;;;;5.00;3.73;;;16.20;88.20;;;;;;5067451;28;20203;-80
2022/05/27 05:31:43;;;;;;;3.83;3.50;;;16.20;87.70;;;;;;5043898;28;20194;-79
2022/05/27 05:34:08;;;;;;;6.90;4.00;;;16.30;88.10;;;;;;5060218;28;20310;-80
2022/05/27 05:36:34;;;;;;;4.33;3.83;;;16.20;88.00;;;;;;5042866;28;20686;-80
2022/05/27 05:39:02;;;;;;;5.23;3.70;;;16.20;87.70;;;;;;5063844;28;20564;-79
2022/05/27 05:41:36;;;;;;;3.93;3.63;;;16.30;87.70;;;;;;5050268;28;20235;-79
2022/05/27 05:44:04;;;;;;;4.40;4.00;;;16.20;87.50;;;;;;5056559;28;20459;-80
2022/05/27 05:46:32;;;;;;;4.13;3.57;;;16.20;87.70;;;;;;5049025;28;20193;-80
2022/05/27 05:48:58;;;;;;;4.10;3.47;;;16.30;87.10;;;;;;5047036;28;20203;-80
2022/05/27 05:51:24;;;;;;;4.43;4.03;;;16.40;86.40;;;;;;5043393;28;20204;-80
2022/05/27 05:53:50;;;;;;;7.20;4.23;;;16.50;86.00;;;;;;5059102;28;20219;-79
2022/05/27 05:56:16;;;;;;;7.27;4.67;;;16.50;85.10;;;;;;5060000;28;20216;-79
2022/05/27 05:58:42;;;;;;;4.53;3.97;;;16.40;85.20;;;;;;5064540;28;20242;-79
2022/05/27 06:01:07;;;;;;;4.27;3.60;;;16.30;86.00;;;;;;5063781;28;20196;-81
2022/05/27 06:03:33;;;;;;;4.63;3.70;;;16.30;86.50;;;;;;5066032;28;20219;-79
2022/05/27 06:05:59;;;;;;;3.80;3.47;;;16.40;86.00;;;;;;5065853;28;20200;-81
2022/05/27 06:08:26;;;;;;;7.47;3.83;;;16.40;85.70;;;;;;5056783;28;20192;-81
2022/05/27 06:10:52;;;;;;;4.13;3.70;;;16.40;85.80;;;;;;5062805;28;20198;-81
2022/05/27 06:13:17;;;;;;;5.20;4.00;;;16.40;86.00;;;;;;5057244;28;20212;-79
2022/05/27 06:15:43;;;;;;;4.63;3.57;;;16.50;85.40;;;;;;5066098;28;20696;-80
2022/05/27 06:18:09;;;;;;;3.57;3.07;;;16.60;85.20;;;;;;5061469;28;20614;-80
2022/05/27 06:20:35;;;;;;;6.23;4.27;;;16.60;85.00;;;;;;5089697;22;20958;-80
2022/05/27 06:23:05;;;;;;;3.93;3.63;;;16.50;85.20;;;;;;5073022;28;20886;-80
2022/05/27 06:25:31;;;;;;;5.00;3.50;;;16.60;85.00;;;;;;5070484;28;20657;-81
2022/05/27 06:36:12;;;;;;;4.70;4.23;;;16.60;84.00;;;;;;5071497;28;20263;-80
2022/05/27 06:38:38;;;;;;;10.77;5.37;;;16.50;83.50;;;;;;5072015;28;20211;-83
2022/05/27 06:41:04;;;;;;;5.57;4.27;;;16.50;84.60;;;;;;5071840;28;20685;-79
2022/05/27 06:43:31;;;;;;;7.20;4.17;;;16.50;83.60;;;;;;5071619;28;20179;-84
2022/05/27 06:45:58;;;;;;;5.93;4.23;;;16.40;84.20;;;;;;5055196;28;20203;-81
2022/05/27 06:48:24;;;;;;;5.40;4.00;;;16.50;84.30;;;;;;5073371;28;20260;-81
2022/05/27 06:50:49;;;;;;;4.87;4.30;;;16.60;83.80;;;;;;5044069;28;20210;-81
2022/05/27 06:53:15;;;;;;;4.07;3.77;;;16.70;83.00;;;;;;5044595;28;20208;-82
2022/05/27 06:55:41;;;;;;;5.47;4.20;;;16.60;83.10;;;;;;5073353;28;20188;-81
2022/05/27 06:58:06;;;;;;;4.70;4.30;;;16.60;82.60;;;;;;5071660;28;20201;-82
2022/05/27 07:00:32;;;;;;;4.47;4.17;;;16.50;83.10;;;;;;5051251;28;20220;-81
2022/05/27 07:02:58;;;;;;;5.13;4.40;;;16.50;83.70;;;;;;5066971;28;20185;-81
2022/05/27 07:05:24;;;;;;;4.83;4.10;;;16.50;83.80;;;;;;5049675;28;20794;-81
2022/05/27 07:07:52;;;;;;;7.57;4.10;;;16.50;83.70;;;;;;5062972;28;20204;-80
2022/05/27 07:10:18;;;;;;;5.17;4.17;;;16.50;83.50;;;;;;5046594;28;20886;-81
2022/05/27 07:12:43;;;;;;;4.50;4.10;;;16.60;83.20;;;;;;5065465;28;20280;-81
2022/05/27 07:15:09;;;;;;;6.80;4.73;;;16.60;83.20;;;;;;5065541;28;20191;-82
2022/05/27 07:17:35;;;;;;;6.47;4.17;;;16.50;83.90;;;;;;5050490;28;20835;-82
2022/05/27 07:20:05;;;;;;;5.13;4.67;;;16.50;84.30;;;;;;5073056;28;20320;-81
2022/05/27 07:22:31;;;;;;;4.90;4.43;;;16.60;83.80;;;;;;5068874;28;20203;-81
2022/05/27 07:24:56;;;;;;;7.93;4.27;;;16.70;84.30;;;;;;5069012;28;20229;-81
2022/05/27 07:27:22;;;;;;;4.63;4.23;;;16.70;85.10;;;;;;5068496;28;20661;-82
2022/05/27 07:29:47;;;;;;;4.60;4.20;;;16.80;83.80;;;;;;5067821;28;20242;-81
2022/05/27 07:32:14;;;;;;;4.63;4.23;;;16.80;84.70;;;;;;5066475;28;20176;-81
2022/05/27 07:34:40;;;;;;;4.37;3.97;;;16.90;84.60;;;;;;5069902;28;20729;-83
2022/05/27 07:37:06;;;;;;;4.63;4.27;;;17.00;83.10;;;;;;5055078;28;20254;-83
2022/05/27 07:39:31;;;;;;;4.10;3.70;;;16.90;82.40;;;;;;5069299;28;20227;-81
2022/05/27 07:41:57;;;;;;;6.73;3.97;;;17.00;82.60;;;;;;5068936;28;20210;-81
2022/05/27 07:44:23;;;;;;;4.13;3.73;;;16.90;83.10;;;;;;5067727;28;20195;-82
2022/05/27 07:46:52;;;;;;;4.47;3.97;;;16.90;83.50;;;;;;5067150;28;20711;-82
2022/05/27 07:49:18;;;;;;;4.90;4.20;;;16.70;83.80;;;;;;5046860;28;20211;-81
2022/05/27 07:51:43;;;;;;;11.40;4.10;;;16.60;84.50;;;;;;5063094;28;20202;-81
2022/05/27 07:54:11;;;;;;;4.50;3.57;;;16.70;84.10;;;;;;5062752;28;20192;-81
2022/05/27 07:56:39;;;;;;;4.73;4.17;;;16.80;83.90;;;;;;5066345;28;20207;-82
2022/05/27 07:59:05;;;;;;;3.80;3.37;;;16.80;83.90;;;;;;5066188;28;20650;-82
2022/05/27 08:01:31;;;;;;;4.47;3.87;;;16.90;84.10;;;;;;5066015;28;20646;-81
2022/05/27 08:03:57;;;;;;;5.30;3.60;;;17.00;84.20;;;;;;5063038;28;20253;-81
2022/05/27 08:06:23;;;;;;;4.33;3.93;;;17.00;83.70;;;;;;5068072;28;20259;-81
2022/05/27 08:08:48;;;;;;;3.73;3.43;;;17.00;83.10;;;;;;5057422;28;20188;-83
2022/05/27 08:11:14;;;;;;;7.50;4.47;;;17.00;83.80;;;;;;5067513;28;20187;-81
2022/05/27 08:13:43;;;;;;;5.63;4.17;;;16.90;84.10;;;;;;5065944;28;20191;-82
2022/05/27 08:16:09;;;;;;;4.13;3.73;;;16.80;84.20;;;;;;5068401;28;20205;-81
2022/05/27 08:18:38;;;;;;;6.00;3.67;;;16.70;84.80;;;;;;5067817;28;20184;-81
2022/05/27 08:21:03;;;;;;;3.63;3.27;;;17.00;84.80;;;;;;5068927;28;20216;-81
2022/05/27 08:23:29;;;;;;;5.07;3.90;;;17.10;84.20;;;;;;5050625;28;20190;-82
2022/05/27 08:25:56;;;;;;;4.67;3.90;;;17.20;83.10;;;;;;5067166;28;20237;-82
2022/05/27 08:28:24;;;;;;;4.10;3.80;;;17.40;81.30;;;;;;5054233;28;20200;-81
2022/05/27 08:30:55;;;;;;;4.00;3.67;;;17.40;81.00;;;;;;5071537;28;20234;-81
2022/05/27 08:33:21;;;;;;;5.40;3.43;;;17.40;81.30;;;;;;5070204;28;20223;-81
2022/05/27 08:38:34;;;;;;;6.03;3.20;;;17.50;81.20;;;;;;5051858;28;20210;-83
2022/05/27 08:41:08;;;;;;;4.73;3.80;;;17.80;81.20;;;;;;5068782;28;20257;-81
2022/05/27 08:44:28;;;;;;;4.30;4.00;;;17.70;80.00;;;;;;5073888;28;20190;-82
2022/05/27 08:47:17;;;;;;;5.20;4.23;;;17.50;81.10;;;;;;4975140;28;20193;-81
2022/05/27 08:49:48;;;;;;;4.40;3.50;;;17.50;80.80;;;;;;5065415;28;20212;-82
2022/05/27 08:52:33;;;;;;;3.77;3.37;;;17.50;80.50;;;;;;5064382;28;20189;-81
2022/05/27 08:59:26;;;;;;;4.93;3.33;;;17.50;81.60;;;;;;5068221;28;20179;-81
2022/05/27 09:00:38;;;;;;;4.13;3.77;;;17.60;79.80;;;;;;5067699;28;20215;-81
2022/05/27 09:03:07;;;;;;;4.80;3.60;;;17.60;79.80;;;;;;5069063;28;20274;-80
2022/05/27 09:05:44;;;;;;;6.80;3.97;;;17.60;77.50;;;;;;5068326;28;20191;-82
2022/05/27 09:08:19;;;;;;;5.03;3.37;;;17.50;80.20;;;;;;5068826;28;20199;-81
2022/05/27 09:11:14;;;;;;;4.03;3.63;;;17.60;76.10;;;;;;5067553;28;20585;-82
2022/05/27 09:14:07;;;;;;;4.30;3.60;;;17.70;77.10;;;;;;5070184;28;20657;-81
2022/05/27 09:17:00;;;;;;;4.37;3.53;;;17.80;75.70;;;;;;5069947;28;20196;-81
2022/05/27 09:19:35;;;;;;;4.40;3.67;;;18.20;76.50;;;;;;5067710;28;20218;-81
2022/05/27 09:22:35;;;;;;;4.57;3.30;;;18.40;74.30;;;;;;5063814;28;20185;-81
2022/05/27 09:25:45;;;;;;;4.63;3.13;;;18.60;71.70;;;;;;5073328;28;20189;-83
2022/05/27 09:28:14;;;;;;;3.97;2.80;;;18.60;71.90;;;;;;5064306;28;20190;-82
2022/05/27 09:30:41;;;;;;;3.70;3.40;;;18.60;72.80;;;;;;5069079;28;20226;-82
2022/05/27 09:33:10;;;;;;;3.70;3.37;;;18.90;71.70;;;;;;5073219;28;20192;-81
2022/05/27 09:35:48;;;;;;;3.20;2.90;;;19.10;70.40;;;;;;5071970;28;20220;-82
2022/05/27 09:38:30;;;;;;;3.50;3.10;;;18.90;69.90;;;;;;5075387;28;20217;-80
2022/05/27 09:41:23;;;;;;;3.60;3.30;;;18.90;69.20;;;;;;5072563;28;20197;-81
2022/05/27 09:43:53;;;;;;;4.33;3.27;;;19.10;69.30;;;;;;5041735;28;20339;-81
2022/05/27 09:46:28;;;;;;;4.63;3.07;;;19.20;68.50;;;;;;5078046;28;20194;-81
2022/05/27 09:48:56;;;;;;;3.77;3.23;;;18.90;70.00;;;;;;5073867;28;20196;-83
2022/05/27 09:51:24;;;;;;;3.20;3.00;;;18.90;71.70;;;;;;5074241;28;20567;-80
2022/05/27 09:53:54;;;;;;;6.30;2.97;;;19.10;69.20;;;;;;5075693;28;20192;-82
2022/05/27 09:56:40;;;;;;;3.70;3.10;;;19.30;69.00;;;;;;5062203;28;20225;-82
2022/05/27 09:59:35;;;;;;;6.17;3.13;;;19.20;67.20;;;;;;5077343;28;20184;-82
2022/05/27 10:02:21;;;;;;;3.50;3.20;;;19.30;65.60;;;;;;5070405;28;20285;-81
2022/05/27 10:04:58;;;;;;;3.60;3.30;;;19.30;65.20;;;;;;5069303;28;20214;-81
2022/05/27 10:07:31;;;;;;;4.67;3.20;;;19.40;64.30;;;;;;5073400;28;20216;-82
2022/05/27 10:09:57;;;;;;;6.27;3.37;;;19.30;65.10;;;;;;5066231;28;20578;-81
2022/05/27 10:12:32;;;;;;;3.03;2.83;;;19.30;65.50;;;;;;5072983;28;20211;-81
2022/05/27 10:14:58;;;;;;;3.50;3.20;;;19.30;62.90;;;;;;5065895;28;20195;-81
2022/05/27 10:17:36;;;;;;;3.60;2.87;;;19.30;62.90;;;;;;5077097;28;20255;-81
2022/05/27 10:20:34;;;;;;;6.53;3.37;;;19.40;65.10;;;;;;5076217;28;20230;-83
2022/05/27 10:23:04;;;;;;;2.90;2.70;;;19.60;64.10;;;;;;5013391;28;20654;-81
2022/05/27 10:25:34;;;;;;;4.33;3.23;;;19.60;63.60;;;;;;5066619;28;20197;-82
2022/05/27 10:28:00;;;;;;;3.13;2.93;;;19.70;63.90;;;;;;5065667;28;20683;-82
2022/05/27 10:30:39;;;;;;;6.13;3.20;;;19.70;64.60;;;;;;5067268;28;20220;-81
2022/05/27 10:33:34;;;;;;;4.83;3.10;;;19.70;64.00;;;;;;5069632;28;20186;-81
2022/05/27 10:36:01;;;;;;;6.60;3.30;;;19.70;63.70;;;;;;5067113;28;20226;-81
2022/05/27 10:38:40;;;;;;;4.30;3.45;;;20.30;62.50;;;;;;5069426;28;20302;-81
2022/05/27 10:41:27;;;;;;;5.63;3.05;;;20.50;59.60;;;;;;5066181;28;20267;-81
2022/05/27 10:44:25;;;;;;;6.32;3.03;;;20.60;56.80;;;;;;5068106;28;20199;-82
2022/05/27 10:46:55;;;;;;;6.00;3.47;;;20.60;57.50;;;;;;5070109;28;20182;-82
2022/05/27 10:49:51;;;;;;;3.80;2.97;;;20.70;57.70;;;;;;5071965;28;20226;-81
2022/05/27 10:52:25;;;;;;;5.25;3.10;;;20.60;57.70;;;;;;5069163;28;20214;-81
2022/05/27 10:55:12;;;;;;;3.53;2.70;;;20.20;57.90;;;;;;5071992;28;21044;-81
2022/05/27 11:03:56;;;;;;;2.60;2.38;;;20.30;59.00;;;;;;5060424;28;20191;-81
2022/05/27 11:06:27;;;;;;;4.07;3.10;;;20.40;58.80;;;;;;5061806;28;20239;-81
2022/05/27 11:09:09;;;;;;;3.97;3.03;;;20.50;59.40;;;;;;5063523;28;20662;-81
2022/05/27 11:11:41;;;;;;;3.75;2.42;;;20.50;58.60;;;;;;5067058;28;20197;-81
2022/05/27 11:17:05;;;;;;;3.20;3.00;;;20.40;60.10;;;;;;5069824;28;20214;-81
2022/05/27 11:19:52;;;;;;;4.00;2.80;;;20.50;61.70;;;;;;5073577;28;20684;-81
2022/05/27 11:22:37;;;;;;;3.30;3.00;;;20.30;61.30;;;;;;5072773;28;20198;-81
2022/05/27 11:25:36;;;;;;;5.07;3.22;;;20.00;63.10;;;;;;5063108;28;20190;-81
2022/05/27 11:28:43;;;;;;;8.57;3.35;;;20.00;63.50;;;;;;5063186;28;20176;-80
2022/05/27 11:31:13;;;;;;;3.20;2.90;;;20.00;63.60;;;;;;5044115;28;20211;-81
2022/05/27 11:34:12;;;;;;;3.20;2.90;;;19.90;64.90;;;;;;5071555;28;20229;-83
2022/05/27 11:36:56;;;;;;;4.32;3.15;;;19.90;64.20;;;;;;5037990;28;20224;-79
2022/05/27 11:39:27;;;;;;;3.93;3.10;;;19.60;64.20;;;;;;5068485;28;20283;-81
2022/05/27 11:42:31;;;;;;;3.93;2.83;;;19.60;64.80;;;;;;5079021;28;20185;-82
2022/05/27 11:45:17;;;;;;;3.63;2.50;;;19.50;65.90;;;;;;5060609;28;20221;-82
2022/05/27 11:47:58;;;;;;;3.40;3.10;;;19.50;65.10;;;;;;5074021;28;20182;-81
2022/05/27 11:50:57;;;;;;;5.03;3.03;;;19.30;65.10;;;;;;5072199;28;20212;-81
2022/05/27 11:53:33;;;;;;;4.23;2.70;;;19.20;67.00;;;;;;5040528;28;20212;-80
2022/05/27 11:56:14;;;;;;;4.05;3.00;;;19.30;67.30;;;;;;5049775;28;20219;-81
2022/05/27 11:59:17;;;;;;;2.80;2.60;;;19.40;68.40;;;;;;5068518;28;20183;-81
2022/05/27 12:01:49;;;;;;;3.70;2.50;;;19.30;66.10;;;;;;5073257;28;20188;-81
2022/05/27 12:04:42;;;;;;;3.50;2.77;;;19.20;64.70;;;;;;5073780;28;20193;-81
2022/05/27 12:07:45;;;;;;;2.90;2.70;;;19.30;63.80;;;;;;5072486;28;20692;-82
2022/05/27 12:10:16;;;;;;;3.10;2.90;;;19.20;64.10;;;;;;5072069;28;20215;-81
2022/05/27 12:13:17;;;;;;;2.70;2.50;;;19.10;64.70;;;;;;5075778;28;20203;-81
2022/05/27 12:15:52;;;;;;;2.73;2.40;;;19.20;65.90;;;;;;5037945;28;20196;-80
2022/05/27 12:18:38;;;;;;;3.10;2.80;;;19.10;65.60;;;;;;5074404;28;20192;-82
2022/05/27 12:21:09;;;;;;;5.00;2.57;;;18.90;66.20;;;;;;5078770;28;20218;-81
2022/05/27 12:23:38;;;;;;;3.47;2.50;;;18.80;66.50;;;;;;5080402;28;20259;-80
2022/05/27 12:26:05;;;;;;;3.87;2.60;;;18.80;66.50;;;;;;5080058;28;20182;-80
2022/05/27 12:28:34;;;;;;;3.10;2.80;;;18.80;66.50;;;;;;5077766;28;20181;-80
2022/05/27 12:31:01;;;;;;;4.70;2.57;;;18.70;67.10;;;;;;5080736;28;20223;-80
2022/05/27 12:33:29;;;;;;;3.43;2.57;;;18.70;68.10;;;;;;5080507;28;20221;-79
2022/05/27 12:36:01;;;;;;;3.30;3.00;;;18.70;67.00;;;;;;5080561;28;20196;-81
2022/05/27 12:38:57;;;;;;;3.50;3.20;;;18.80;67.40;;;;;;5073203;28;20197;-81
2022/05/27 12:41:39;;;;;;;4.03;3.30;;;19.00;67.50;;;;;;5082320;28;20200;-79
2022/05/27 12:44:28;;;;;;;4.30;2.80;;;18.90;67.00;;;;;;5073718;28;20188;-81
2022/05/27 12:46:59;;;;;;;3.50;3.20;;;18.90;67.10;;;;;;5076543;28;20566;-80
2022/05/27 12:49:25;;;;;;;3.80;3.10;;;19.00;67.00;;;;;;5074771;28;20236;-81
2022/05/27 12:51:51;;;;;;;3.10;2.80;;;19.10;67.40;;;;;;5077918;28;20713;-81
2022/05/27 12:54:42;;;;;;;4.23;2.67;;;18.90;66.90;;;;;;5062704;28;20200;-81
2022/05/27 13:00:57;;;;;;;2.87;2.63;;;19.00;67.50;;;;;;5077121;28;20237;-81
2022/05/27 13:03:38;;;;;;;2.87;2.67;;;19.00;68.90;;;;;;5078404;28;20189;-81
2022/05/27 13:06:25;;;;;;;2.77;2.57;;;19.00;68.20;;;;;;5084248;28;20184;-81
2022/05/27 13:09:02;;;;;;;3.30;2.60;;;19.20;66.80;;;;;;5076388;28;20181;-81
2022/05/27 13:11:34;;;;;;;2.60;2.40;;;19.10;67.80;;;;;;5068389;28;20189;-82
2022/05/27 13:14:24;;;;;;;3.97;2.63;;;19.00;67.30;;;;;;5072708;28;20243;-81
2022/05/27 13:17:20;;;;;;;4.07;2.50;;;18.80;69.30;;;;;;5078673;28;20200;-81
2022/05/27 13:20:19;;;;;;;3.37;2.60;;;18.80;68.60;;;;;;5085101;28;20374;-81
2022/05/27 13:22:45;;;;;;;4.37;2.40;;;18.90;68.40;;;;;;5083214;28;20824;-82
2022/05/27 13:25:19;;;;;;;4.27;2.60;;;18.90;69.20;;;;;;5081617;28;20217;-82
2022/05/27 13:27:46;;;;;;;2.45;2.20;;;19.00;67.70;;;;;;5079773;28;20254;-81
2022/05/27 13:30:14;;;;;;;4.53;2.60;;;19.10;67.40;;;;;;5082124;28;20218;-83
2022/05/27 13:33:01;;;;;;;2.60;2.40;;;19.20;66.80;;;;;;5090688;28;20257;-81
2022/05/27 13:35:40;;;;;;;3.70;2.40;;;19.20;67.00;;;;;;5068134;28;20206;-82
2022/05/27 13:38:10;;;;;;;2.67;2.47;;;19.20;66.20;;;;;;5060529;28;20195;-82
2022/05/27 13:40:36;;;;;;;4.27;2.50;;;19.00;66.30;;;;;;5081187;28;20241;-82
2022/05/27 13:43:19;;;;;;;2.70;2.47;;;19.10;67.60;;;;;;5084863;28;20188;-81
2022/05/27 13:45:53;;;;;;;3.80;2.50;;;19.00;67.10;;;;;;5067511;28;20198;-81
2022/05/27 13:48:43;;;;;;;3.58;2.35;;;18.80;69.00;;;;;;5081490;28;20209;-81
2022/05/27 13:51:16;;;;;;;3.00;2.70;;;19.00;69.40;;;;;;5063080;28;20217;-81
2022/05/27 13:53:43;;;;;;;2.93;2.67;;;19.00;68.40;;;;;;5080397;28;20187;-81
2022/05/27 13:56:25;;;;;;;3.20;2.77;;;18.90;68.90;;;;;;5076737;28;20208;-81